createdAt,value
2016-10-26T16:08:05.700Z,2220
2016-10-26T16:08:22.430Z,2655
2016-10-26T16:08:39.174Z,2780
2016-10-26T16:08:55.912Z,2605
2016-10-26T16:09:12.743Z,2990
2016-10-26T16:09:29.543Z,2285
2016-10-26T16:09:46.263Z,2215
2016-10-26T16:10:03.013Z,2225
2016-10-26T16:10:19.852Z,2235
2016-10-26T16:10:36.587Z,2185
2016-10-26T16:10:53.340Z,2200
2016-10-26T16:11:10.036Z,2210
2016-10-26T16:11:26.755Z,2175
2016-10-26T16:11:43.515Z,2195
2016-10-26T16:12:00.293Z,2230
2016-10-26T16:12:17.015Z,2285
2016-10-26T16:12:33.770Z,2220
2016-10-26T16:12:50.475Z,2190
2016-10-26T16:13:07.827Z,2135
2016-10-26T16:13:24.575Z,2135
2016-10-26T16:13:41.313Z,2195
2016-10-26T16:13:58.083Z,2235
2016-10-26T16:14:14.807Z,2270
2016-10-26T16:14:31.617Z,2290
2016-10-26T16:14:48.403Z,2335
2016-10-26T16:15:05.925Z,2465
2016-10-26T16:15:22.690Z,2440
2016-10-26T16:15:39.450Z,2490
2016-10-26T16:15:56.191Z,2455
2016-10-26T16:16:12.960Z,2570
2016-10-26T16:16:29.713Z,2510
2016-10-26T16:16:46.456Z,2390
2016-10-26T16:17:03.182Z,2390
2016-10-26T16:17:19.985Z,2480
2016-10-26T16:17:51.826Z,2530
2016-10-26T16:18:08.580Z,2625
2016-10-26T16:18:25.373Z,2655
2016-10-26T16:18:42.482Z,2730
2016-10-26T16:18:59.204Z,2855
2016-10-26T16:19:15.905Z,2950
2016-10-26T16:19:32.638Z,3170
2016-10-26T16:19:49.600Z,3435
2016-10-26T16:20:06.401Z,3295
2016-10-26T16:20:23.223Z,3430
2016-10-26T16:20:39.947Z,3565
2016-10-26T16:20:56.655Z,2995
2016-10-26T16:21:13.390Z,2815
2016-10-26T16:21:30.106Z,3110
2016-10-26T16:21:46.896Z,2945
2016-10-26T16:22:03.671Z,3295
2016-10-26T16:22:20.441Z,3275
2016-10-26T16:22:37.184Z,3105
2016-10-26T16:23:08.514Z,2580
2016-10-26T16:23:25.262Z,2555
2016-10-26T16:23:42.034Z,2455
2016-10-26T16:23:59.284Z,2490
2016-10-26T16:24:16.030Z,2350
2016-10-26T16:24:33.410Z,2315
2016-10-26T16:24:50.131Z,2285
2016-10-26T16:25:06.912Z,2235
2016-10-26T16:25:23.683Z,2225
2016-10-26T16:25:40.490Z,2235
2016-10-26T16:25:57.260Z,2265
2016-10-26T16:26:14.024Z,2230
2016-10-26T16:26:30.779Z,2200
2016-10-26T16:26:47.526Z,2175
2016-10-26T16:27:04.281Z,2160
2016-10-26T16:27:21.573Z,2150
2016-10-26T16:27:38.365Z,2150
2016-10-26T16:27:55.117Z,2140
2016-10-26T16:28:11.886Z,2135
2016-10-26T16:28:28.656Z,2135
2016-10-26T16:28:45.440Z,2170
2016-10-26T16:29:02.192Z,2230
2016-10-26T16:29:18.937Z,2240
2016-10-26T16:29:35.700Z,2225
2016-10-26T16:29:52.462Z,2290
2016-10-26T16:30:09.209Z,2305
2016-10-26T16:30:25.937Z,2395
2016-10-26T16:30:42.791Z,2535
2016-10-26T16:30:59.569Z,2515
2016-10-26T16:31:16.464Z,2550
2016-10-26T16:31:33.206Z,2455
2016-10-26T16:31:49.925Z,2425
2016-10-26T16:32:06.676Z,2405
2016-10-26T16:32:23.430Z,2475
2016-10-26T16:32:40.197Z,2370
2016-10-26T16:32:56.956Z,2325
2016-10-26T16:33:13.750Z,2240
2016-10-26T16:33:30.500Z,2170
2016-10-26T16:33:47.240Z,2115
2016-10-26T16:34:04.514Z,2160
2016-10-26T16:34:21.269Z,2135
2016-10-26T16:34:38.012Z,1995
2016-10-26T16:34:54.768Z,1930
2016-10-26T16:35:11.596Z,1850
2016-10-26T16:35:28.373Z,1805
2016-10-26T16:35:45.157Z,1770
2016-10-26T16:36:01.949Z,1750
2016-10-26T16:36:18.706Z,1730
2016-10-26T16:36:35.904Z,1730
2016-10-26T16:36:52.646Z,1715
2016-10-26T16:37:09.403Z,1715
2016-10-26T16:37:26.164Z,1695
2016-10-26T16:37:42.937Z,1680
2016-10-26T16:37:59.694Z,1675
2016-10-26T16:38:16.443Z,1655
2016-10-26T16:38:33.214Z,1640
2016-10-26T16:38:50.449Z,1620
2016-10-26T16:39:07.187Z,1605
2016-10-26T16:39:24.483Z,1580
2016-10-26T16:39:41.254Z,1555
2016-10-26T16:39:58.036Z,1535
2016-10-26T16:40:14.862Z,1520
2016-10-26T16:40:31.651Z,1505
2016-10-26T16:40:48.434Z,1480
2016-10-26T16:41:05.291Z,1460
2016-10-26T16:41:22.024Z,1435
2016-10-26T16:41:38.804Z,1405
2016-10-26T16:41:55.569Z,1380
2016-10-26T16:42:12.487Z,1365
2016-10-26T16:42:29.237Z,1340
2016-10-26T16:42:45.996Z,1325
2016-10-26T16:43:02.748Z,1305
2016-10-26T16:43:19.627Z,1295
2016-10-26T16:43:36.456Z,1275
2016-10-26T16:43:53.248Z,1265
2016-10-26T16:44:10.068Z,1260
2016-10-26T16:44:26.874Z,1245
2016-10-26T16:44:43.668Z,1235
2016-10-26T16:45:00.493Z,1230
2016-10-26T16:45:17.238Z,1235
2016-10-26T16:45:33.996Z,1235
2016-10-26T16:45:50.759Z,1250
2016-10-26T16:46:07.506Z,1265
2016-10-26T16:46:24.240Z,1290
2016-10-26T16:46:41.068Z,1320
2016-10-26T16:46:58.049Z,1370
2016-10-26T16:47:14.832Z,1440
2016-10-26T16:47:31.555Z,1730
2016-10-26T16:47:48.336Z,1525
2016-10-26T16:48:05.121Z,1435
2016-10-26T16:48:21.946Z,1430
2016-10-26T16:48:38.700Z,1445
2016-10-26T16:48:55.569Z,1545
2016-10-26T16:49:12.415Z,1535
2016-10-26T16:49:29.666Z,1560
2016-10-26T16:49:46.419Z,1645
2016-10-26T16:50:03.171Z,2110
2016-10-26T16:50:19.917Z,2010
2016-10-26T16:50:36.653Z,1840
2016-10-26T16:50:53.427Z,2970
2016-10-26T16:51:10.169Z,2985
2016-10-26T16:51:26.958Z,1840
2016-10-26T16:51:43.724Z,1800
2016-10-26T16:52:00.474Z,1790
2016-10-26T16:52:17.236Z,1735
2016-10-26T16:52:33.983Z,1695
2016-10-26T16:52:50.725Z,1665
2016-10-26T16:53:07.513Z,1640
2016-10-26T16:53:24.808Z,1620
2016-10-26T16:53:41.628Z,1595
2016-10-26T16:53:58.477Z,1605
2016-10-26T16:54:15.223Z,2225
2016-10-26T16:54:32.006Z,2355
2016-10-26T16:54:48.819Z,1760
2016-10-26T16:55:05.684Z,2535
2016-10-26T16:55:22.985Z,2360
2016-10-26T16:55:39.750Z,2565
2016-10-26T16:55:56.522Z,2680
2016-10-26T16:56:13.257Z,2755
2016-10-26T16:56:30.055Z,2615
2016-10-26T16:56:46.874Z,1940
2016-10-26T16:57:04.179Z,1980
2016-10-26T16:57:20.961Z,2850
2016-10-26T16:57:37.803Z,2800
2016-10-26T16:57:54.676Z,1955
2016-10-26T16:58:11.576Z,2250
2016-10-26T16:58:28.385Z,1920
2016-10-26T16:58:45.168Z,2880
2016-10-26T16:59:01.929Z,2190
2016-10-26T16:59:18.695Z,2200
2016-10-26T16:59:35.516Z,1525
2016-10-26T16:59:52.277Z,1460
2016-10-26T17:00:09.558Z,1410
2016-10-26T17:00:26.302Z,1370
2016-10-26T17:00:43.113Z,1330
2016-10-26T17:00:59.872Z,1315
2016-10-26T17:01:16.638Z,1285
2016-10-26T17:01:33.446Z,1270
2016-10-26T17:01:50.253Z,1315
2016-10-26T17:02:06.996Z,1260
2016-10-26T17:02:23.772Z,1240
2016-10-26T17:02:40.591Z,1240
2016-10-26T17:02:57.357Z,1240
2016-10-26T17:03:14.128Z,1245
2016-10-26T17:03:30.910Z,1245
2016-10-26T17:03:47.694Z,1255
2016-10-26T17:04:04.489Z,1260
2016-10-26T17:04:21.315Z,1275
2016-10-26T17:04:38.076Z,1275
2016-10-26T17:04:54.850Z,1295
2016-10-26T17:05:11.605Z,1320
2016-10-26T17:05:28.430Z,1400
2016-10-26T17:05:45.260Z,1530
2016-10-26T17:06:02.012Z,1570
2016-10-26T17:06:33.792Z,1460
2016-10-26T17:06:50.611Z,1475
2016-10-26T17:07:07.379Z,1500
2016-10-26T17:07:24.150Z,1530
2016-10-26T17:07:40.897Z,1575
2016-10-26T17:07:57.721Z,1770
2016-10-26T17:08:14.569Z,2010
2016-10-26T17:08:31.357Z,2195
2016-10-26T17:08:48.703Z,2245
2016-10-26T17:09:05.460Z,2305
2016-10-26T17:09:22.210Z,2330
2016-10-26T17:09:38.993Z,2175
2016-10-26T17:09:55.768Z,2040
2016-10-26T17:10:12.548Z,2035
2016-10-26T17:10:29.348Z,2095
2016-10-26T17:10:46.125Z,2055
2016-10-26T17:11:02.878Z,1995
2016-10-26T17:11:19.669Z,2020
2016-10-26T17:11:36.944Z,2025
2016-10-26T17:11:53.774Z,1935
2016-10-26T17:12:10.578Z,1905
2016-10-26T17:12:27.321Z,1845
2016-10-26T17:12:44.812Z,1860
2016-10-26T17:13:01.863Z,1885
2016-10-26T17:13:18.626Z,1885
2016-10-26T17:13:35.382Z,1900
2016-10-26T17:13:52.175Z,1940
2016-10-26T17:14:09.002Z,1920
2016-10-26T17:14:25.745Z,1945
2016-10-26T17:14:42.504Z,1920
2016-10-26T17:14:59.316Z,1825
2016-10-26T17:15:16.053Z,1790
2016-10-26T17:15:32.825Z,1840
2016-10-26T17:15:49.666Z,1755
2016-10-26T17:16:06.427Z,1755
2016-10-26T17:16:23.215Z,1775
2016-10-26T17:16:39.976Z,1730
2016-10-26T17:16:56.739Z,1695
2016-10-26T17:17:13.500Z,1665
2016-10-26T17:17:30.264Z,1690
2016-10-26T17:17:47.055Z,1685
2016-10-26T17:18:03.822Z,1615
2016-10-26T17:18:20.692Z,1545
2016-10-26T17:18:37.500Z,1490
2016-10-26T17:18:54.250Z,1460
2016-10-26T17:19:11.104Z,1430
2016-10-26T17:19:27.851Z,1415
2016-10-26T17:19:44.742Z,1385
2016-10-26T17:20:01.540Z,1380
2016-10-26T17:20:18.862Z,1375
2016-10-26T17:20:35.726Z,1365
2016-10-26T17:20:53.162Z,1360
2016-10-26T17:21:10.182Z,1360
2016-10-26T17:21:27.085Z,1380
2016-10-26T17:21:45.545Z,1415
2016-10-26T17:22:16.786Z,1435
2016-10-26T17:22:33.596Z,1450
2016-10-26T17:22:50.349Z,1470
2016-10-26T17:23:07.164Z,1490
2016-10-26T17:23:23.984Z,1485
2016-10-26T17:23:40.788Z,1485
2016-10-26T17:23:57.579Z,1490
2016-10-26T17:24:14.412Z,1505
2016-10-26T17:24:32.242Z,1545
2016-10-26T17:24:49.010Z,1575
2016-10-26T17:25:05.791Z,1585
2016-10-26T17:25:22.579Z,1580
2016-10-26T17:25:39.365Z,1605
2016-10-26T17:25:56.637Z,1640
2016-10-26T17:26:13.406Z,1690
2016-10-26T17:26:30.197Z,1725
2016-10-26T17:26:46.964Z,1780
2016-10-26T17:27:03.726Z,1835
2016-10-26T17:27:20.589Z,1840
2016-10-26T17:27:37.463Z,1880
2016-10-26T17:27:54.327Z,1955
2016-10-26T17:28:11.127Z,1985
2016-10-26T17:28:28.071Z,2045
2016-10-26T17:28:44.874Z,2140
2016-10-26T17:29:01.665Z,2215
2016-10-26T17:29:18.921Z,2295
2016-10-26T17:29:35.728Z,2420
2016-10-26T17:29:52.533Z,2545
2016-10-26T17:30:09.344Z,2670
2016-10-26T17:30:26.127Z,2655
2016-10-26T17:30:42.877Z,2710
2016-10-26T17:30:59.624Z,2815
2016-10-26T17:31:16.414Z,2870
2016-10-26T17:31:33.188Z,2865
2016-10-26T17:31:49.998Z,2845
2016-10-26T17:32:06.745Z,2855
2016-10-26T17:32:23.500Z,2855
2016-10-26T17:32:40.783Z,2860
2016-10-26T17:32:57.580Z,2850
2016-10-26T17:33:15.254Z,2805
2016-10-26T17:33:32.109Z,2740
2016-10-26T17:33:49.147Z,2685
2016-10-26T17:34:05.971Z,2670
2016-10-26T17:34:22.703Z,2705
2016-10-26T17:34:39.515Z,2755
2016-10-26T17:34:56.283Z,2740
2016-10-26T17:35:13.094Z,2750
2016-10-26T17:35:29.827Z,2750
2016-10-26T17:35:46.593Z,2780
2016-10-26T17:36:03.354Z,2700
2016-10-26T17:36:20.097Z,2695
2016-10-26T17:36:36.939Z,2830
2016-10-26T17:36:53.900Z,2825
2016-10-26T17:37:11.216Z,2830
2016-10-26T17:37:28.009Z,2775
2016-10-26T17:37:44.793Z,2700
2016-10-26T17:38:01.575Z,2665
2016-10-26T17:38:18.331Z,2655
2016-10-26T17:38:35.202Z,2635
2016-10-26T17:38:52.007Z,2660
2016-10-26T17:39:08.748Z,2690
2016-10-26T17:39:25.518Z,2715
2016-10-26T17:39:42.280Z,2730
2016-10-26T17:39:59.066Z,2780
2016-10-26T17:40:15.911Z,2805
2016-10-26T17:40:32.677Z,2900
2016-10-26T17:40:49.662Z,2865
2016-10-26T17:41:06.463Z,2765
2016-10-26T17:41:23.789Z,2850
2016-10-26T17:41:40.559Z,2840
2016-10-26T17:41:57.365Z,2825
2016-10-26T17:42:14.166Z,2805
2016-10-26T17:42:30.963Z,2795
2016-10-26T17:42:47.801Z,2840
2016-10-26T17:43:04.572Z,2820
2016-10-26T17:43:21.397Z,2770
2016-10-26T17:43:38.183Z,2770
2016-10-26T17:43:55.199Z,2690
2016-10-26T17:44:12.033Z,2645
2016-10-26T17:44:28.803Z,2610
2016-10-26T17:44:46.292Z,2650
2016-10-26T17:45:03.316Z,2710
2016-10-26T17:45:20.148Z,2820
2016-10-26T17:45:36.981Z,2815
2016-10-26T17:45:53.775Z,2760
2016-10-26T17:46:11.041Z,2770
2016-10-26T17:46:27.819Z,2650
2016-10-26T17:46:44.587Z,2465
2016-10-26T17:47:01.345Z,2370
2016-10-26T17:47:18.140Z,2275
2016-10-26T17:47:34.903Z,2215
2016-10-26T17:47:51.646Z,2120
2016-10-26T17:48:08.432Z,1960
2016-10-26T17:48:25.172Z,1920
2016-10-26T17:48:42.037Z,1975
2016-10-26T17:48:58.877Z,2080
2016-10-26T17:49:15.694Z,2120
2016-10-26T17:49:32.469Z,2100
2016-10-26T17:49:49.205Z,2045
2016-10-26T17:50:06.055Z,1650
2016-10-26T17:50:22.809Z,2100
2016-10-26T17:50:39.593Z,2220
2016-10-26T17:50:56.376Z,2080
2016-10-26T17:51:13.138Z,2235
2016-10-26T17:51:29.905Z,1770
2016-10-26T17:51:47.319Z,2290
2016-10-26T17:52:04.130Z,2345
2016-10-26T17:52:20.904Z,2340
2016-10-26T17:52:37.671Z,2570
2016-10-26T17:52:54.498Z,2680
2016-10-26T17:53:11.880Z,2735
2016-10-26T17:53:28.650Z,2980
2016-10-26T17:53:45.397Z,2970
2016-10-26T17:54:02.153Z,3035
2016-10-26T17:54:18.915Z,3075
2016-10-26T17:54:35.741Z,3155
2016-10-26T17:54:52.502Z,3235
2016-10-26T17:55:09.471Z,3305
2016-10-26T17:55:26.251Z,3320
2016-10-26T17:55:43.032Z,3290
2016-10-26T17:55:59.782Z,3315
2016-10-26T17:56:16.623Z,3310
2016-10-26T17:56:33.416Z,3270
2016-10-26T17:56:50.215Z,3225
2016-10-26T17:57:07.008Z,3295
2016-10-26T17:57:23.780Z,3300
2016-10-26T17:57:41.111Z,3220
2016-10-26T17:57:57.873Z,3350
2016-10-26T17:58:14.625Z,3090
2016-10-26T17:58:31.406Z,2520
2016-10-26T17:58:48.305Z,1470
2016-10-26T17:59:05.080Z,1405
2016-10-26T17:59:21.874Z,1350
2016-10-26T17:59:38.630Z,1325
2016-10-26T17:59:55.421Z,1320
2016-10-26T18:00:12.185Z,1475
2016-10-26T18:00:28.942Z,1405
2016-10-26T18:00:45.699Z,1380
2016-10-26T18:01:02.435Z,2830
2016-10-26T18:01:19.207Z,2785
2016-10-26T18:01:35.961Z,2830
2016-10-26T18:01:52.748Z,2915
2016-10-26T18:02:09.501Z,1500
2016-10-26T18:02:26.870Z,1640
2016-10-26T18:02:43.686Z,1370
2016-10-26T18:03:00.427Z,1310
2016-10-26T18:03:17.196Z,1250
2016-10-26T18:03:34.106Z,1230
2016-10-26T18:03:51.024Z,1205
2016-10-26T18:04:09.006Z,1170
2016-10-26T18:04:25.764Z,1135
2016-10-26T18:04:42.550Z,1110
2016-10-26T18:04:59.301Z,1090
2016-10-26T18:05:16.050Z,1085
2016-10-26T18:05:33.326Z,1060
2016-10-26T18:05:50.078Z,1040
2016-10-26T18:06:06.865Z,1035
2016-10-26T18:06:23.825Z,1035
2016-10-26T18:06:40.576Z,1045
2016-10-26T18:06:57.326Z,1060
2016-10-26T18:07:14.072Z,1080
2016-10-26T18:07:30.834Z,1095
2016-10-26T18:07:47.658Z,1130
2016-10-26T18:08:04.475Z,1180
2016-10-26T18:08:21.786Z,1245
2016-10-26T18:08:39.014Z,2155
2016-10-26T18:08:55.976Z,2785
2016-10-26T18:09:12.842Z,2805
2016-10-26T18:09:29.626Z,2820
2016-10-26T18:09:46.439Z,2755
2016-10-26T18:10:03.794Z,2625
2016-10-26T18:10:20.602Z,1430
2016-10-26T18:10:37.346Z,1405
2016-10-26T18:10:54.084Z,1395
2016-10-26T18:11:10.887Z,1460
2016-10-26T18:11:28.163Z,2650
2016-10-26T18:11:44.909Z,2980
2016-10-26T18:12:02.353Z,3015
2016-10-26T18:12:19.282Z,3050
2016-10-26T18:12:36.228Z,2920
2016-10-26T18:12:52.996Z,2835
2016-10-26T18:13:10.103Z,1740
2016-10-26T18:13:27.446Z,2800
2016-10-26T18:13:44.254Z,2895
2016-10-26T18:14:01.024Z,2840
2016-10-26T18:14:17.776Z,2780
2016-10-26T18:14:34.526Z,1935
2016-10-26T18:14:51.325Z,1345
2016-10-26T18:15:08.085Z,1310
2016-10-26T18:15:24.828Z,1430
2016-10-26T18:15:41.596Z,2515
2016-10-26T18:15:58.360Z,1390
2016-10-26T18:16:15.228Z,1260
2016-10-26T18:16:31.972Z,1330
2016-10-26T18:16:48.742Z,1615
2016-10-26T18:17:05.502Z,1280
2016-10-26T18:17:22.249Z,1205
2016-10-26T18:17:38.979Z,1650
2016-10-26T18:17:55.776Z,1745
2016-10-26T18:18:12.542Z,1895
2016-10-26T18:18:29.331Z,1925
2016-10-26T18:18:46.114Z,1665
2016-10-26T18:19:03.371Z,1800
2016-10-26T18:19:20.130Z,1765
2016-10-26T18:19:36.875Z,1695
2016-10-26T18:19:54.163Z,1615
2016-10-26T18:20:11.433Z,1485
2016-10-26T18:20:28.177Z,1300
2016-10-26T18:20:44.922Z,1085
2016-10-26T18:21:01.658Z,875
2016-10-26T18:21:18.453Z,830
2016-10-26T18:21:36.160Z,795
2016-10-26T18:21:52.910Z,805
2016-10-26T18:22:09.732Z,785
2016-10-26T18:22:26.482Z,780
2016-10-26T18:22:43.250Z,760
2016-10-26T18:23:00.052Z,760
2016-10-26T18:23:18.053Z,780
2016-10-26T18:23:34.861Z,805
2016-10-26T18:23:51.594Z,820
2016-10-26T18:24:08.357Z,830
2016-10-26T18:24:25.159Z,870
2016-10-26T18:24:41.953Z,945
2016-10-26T18:24:58.692Z,960
2016-10-26T18:25:15.449Z,995
2016-10-26T18:25:32.218Z,1160
2016-10-26T18:25:49.013Z,1395
2016-10-26T18:26:05.784Z,1620
2016-10-26T18:26:22.796Z,1810
2016-10-26T18:26:39.543Z,2045
2016-10-26T18:26:56.340Z,2345
2016-10-26T18:27:13.085Z,2460
2016-10-26T18:27:30.340Z,2540
2016-10-26T18:27:47.106Z,2635
2016-10-26T18:28:03.905Z,2745
2016-10-26T18:28:21.201Z,2775
2016-10-26T18:28:37.949Z,2765
2016-10-26T18:28:54.712Z,2755
2016-10-26T18:29:11.451Z,2775
2016-10-26T18:29:28.726Z,2755
2016-10-26T18:29:46.021Z,2745
2016-10-26T18:30:02.811Z,2745
2016-10-26T18:30:19.558Z,2795
2016-10-26T18:30:36.304Z,2800
2016-10-26T18:30:53.081Z,2780
2016-10-26T18:31:09.842Z,2780
2016-10-26T18:31:26.614Z,2780
2016-10-26T18:31:43.365Z,2770
2016-10-26T18:32:00.126Z,2765
2016-10-26T18:32:16.870Z,2775
2016-10-26T18:32:34.129Z,2795
2016-10-26T18:32:50.889Z,2805
2016-10-26T18:33:07.676Z,2795
2016-10-26T18:33:24.954Z,2795
2016-10-26T18:33:42.622Z,2780
2016-10-26T18:33:59.393Z,2795
2016-10-26T18:34:16.159Z,2810
2016-10-26T18:34:32.956Z,2780
2016-10-26T18:34:49.712Z,2755
2016-10-26T18:35:06.453Z,2735
2016-10-26T18:35:23.234Z,2695
2016-10-26T18:35:39.990Z,2640
2016-10-26T18:35:56.724Z,2610
2016-10-26T18:36:13.981Z,2565
2016-10-26T18:36:30.749Z,2535
2016-10-26T18:36:47.510Z,2490
2016-10-26T18:37:04.297Z,2420
2016-10-26T18:37:21.087Z,2445
2016-10-26T18:37:37.861Z,2470
2016-10-26T18:37:54.635Z,2495
2016-10-26T18:38:11.424Z,2400
2016-10-26T18:38:28.192Z,1195
2016-10-26T18:38:45.078Z,1095
2016-10-26T18:39:01.877Z,2260
2016-10-26T18:39:18.650Z,2330
2016-10-26T18:39:35.940Z,2290
2016-10-26T18:39:53.272Z,2245
2016-10-26T18:40:10.065Z,2245
2016-10-26T18:40:26.914Z,2105
2016-10-26T18:40:58.165Z,900
2016-10-26T18:41:14.927Z,1720
2016-10-26T18:41:31.724Z,2145
2016-10-26T18:41:48.482Z,2180
2016-10-26T18:42:05.337Z,2190
2016-10-26T18:42:22.211Z,1125
2016-10-26T18:42:38.993Z,870
2016-10-26T18:42:56.300Z,1170
2016-10-26T18:43:13.173Z,1935
2016-10-26T18:43:29.996Z,2035
2016-10-26T18:43:46.749Z,2100
2016-10-26T18:44:03.572Z,2135
2016-10-26T18:44:20.335Z,2095
2016-10-26T18:44:37.103Z,2055
2016-10-26T18:44:53.913Z,2040
2016-10-26T18:45:10.687Z,2020
2016-10-26T18:45:27.440Z,2010
2016-10-26T18:45:44.196Z,2055
2016-10-26T18:46:01.016Z,2100
2016-10-26T18:46:17.779Z,2120
2016-10-26T18:46:35.027Z,2135
2016-10-26T18:46:51.782Z,2095
2016-10-26T18:47:08.635Z,1685
2016-10-26T18:47:25.395Z,1325
2016-10-26T18:47:42.173Z,1475
2016-10-26T18:47:58.931Z,1580
2016-10-26T18:48:15.679Z,1105
2016-10-26T18:48:32.451Z,1890
2016-10-26T18:48:49.227Z,1900
2016-10-26T18:49:06.214Z,1890
2016-10-26T18:49:23.471Z,1845
2016-10-26T18:49:40.229Z,1815
2016-10-26T18:49:56.997Z,1800
2016-10-26T18:50:14.355Z,1480
2016-10-26T18:50:31.130Z,760
2016-10-26T18:50:47.878Z,750
2016-10-26T18:51:05.165Z,740
2016-10-26T18:51:21.935Z,1420
2016-10-26T18:51:38.690Z,1685
2016-10-26T18:51:55.433Z,1725
2016-10-26T18:52:12.188Z,1295
2016-10-26T18:52:28.947Z,1170
2016-10-26T18:52:45.718Z,1650
2016-10-26T18:53:02.470Z,1710
2016-10-26T18:53:19.224Z,1760
2016-10-26T18:53:35.980Z,1805
2016-10-26T18:53:52.830Z,1830
2016-10-26T18:54:10.170Z,1850
2016-10-26T18:54:26.925Z,1855
2016-10-26T18:54:44.264Z,1850
2016-10-26T18:55:01.002Z,1850
2016-10-26T18:55:17.773Z,1835
2016-10-26T18:55:34.548Z,1800
2016-10-26T18:55:51.300Z,1755
2016-10-26T18:56:08.133Z,1715
2016-10-26T18:56:24.887Z,1710
2016-10-26T18:56:41.734Z,1765
2016-10-26T18:56:58.514Z,1765
2016-10-26T18:57:15.321Z,1735
2016-10-26T18:57:32.070Z,1640
2016-10-26T18:57:48.844Z,1490
2016-10-26T18:58:05.638Z,1470
2016-10-26T18:58:22.399Z,1455
2016-10-26T18:58:39.148Z,1490
2016-10-26T18:58:55.905Z,1495
2016-10-26T18:59:12.679Z,1535
2016-10-26T18:59:29.464Z,1565
2016-10-26T18:59:46.223Z,1555
2016-10-26T19:00:02.983Z,1450
2016-10-26T19:00:20.022Z,1580
2016-10-26T19:00:37.305Z,1600
2016-10-26T19:00:54.057Z,1610
2016-10-26T19:01:10.805Z,1580
2016-10-26T19:01:27.556Z,1565
2016-10-26T19:01:44.849Z,1560
2016-10-26T19:02:01.660Z,1550
2016-10-26T19:02:18.456Z,1575
2016-10-26T19:02:35.219Z,1590
2016-10-26T19:02:51.988Z,1615
2016-10-26T19:03:08.786Z,1670
2016-10-26T19:03:25.564Z,1710
2016-10-26T19:03:42.333Z,1690
2016-10-26T19:03:59.127Z,1680
2016-10-26T19:04:15.890Z,1675
2016-10-26T19:04:32.692Z,1685
2016-10-26T19:04:49.450Z,1680
2016-10-26T19:05:06.231Z,1685
2016-10-26T19:05:22.990Z,1675
2016-10-26T19:05:39.735Z,1690
2016-10-26T19:05:56.486Z,1710
2016-10-26T19:06:13.243Z,1705
2016-10-26T19:06:30.034Z,1685
2016-10-26T19:06:46.812Z,1675
2016-10-26T19:07:04.058Z,1655
2016-10-26T19:07:20.841Z,1635
2016-10-26T19:07:37.627Z,1630
2016-10-26T19:07:54.403Z,1615
2016-10-26T19:08:11.880Z,1570
2016-10-26T19:08:28.651Z,1560
2016-10-26T19:08:45.410Z,1460
2016-10-26T19:09:02.278Z,1115
2016-10-26T19:09:19.029Z,1120
2016-10-26T19:09:35.809Z,1335
2016-10-26T19:09:52.577Z,1385
2016-10-26T19:10:09.365Z,1425
2016-10-26T19:10:26.122Z,1450
2016-10-26T19:10:42.890Z,1465
2016-10-26T19:10:59.716Z,1440
2016-10-26T19:11:16.505Z,1415
2016-10-26T19:11:33.269Z,1420
2016-10-26T19:11:50.010Z,1450
2016-10-26T19:12:06.833Z,1440
2016-10-26T19:12:23.601Z,1405
2016-10-26T19:12:40.361Z,1385
2016-10-26T19:12:57.124Z,1440
2016-10-26T19:13:13.894Z,1445
2016-10-26T19:13:30.646Z,1475
2016-10-26T19:13:47.433Z,1455
2016-10-26T19:14:04.203Z,1460
2016-10-26T19:14:20.957Z,1455
2016-10-26T19:14:37.707Z,1450
2016-10-26T19:14:54.442Z,1455
2016-10-26T19:15:11.195Z,1490
2016-10-26T19:15:27.955Z,1510
2016-10-26T19:15:44.716Z,1515
2016-10-26T19:16:01.493Z,1535
2016-10-26T19:16:18.249Z,1535
2016-10-26T19:16:35.010Z,1530
2016-10-26T19:16:51.762Z,1505
2016-10-26T19:17:08.507Z,1470
2016-10-26T19:17:25.258Z,1455
2016-10-26T19:17:42.027Z,1470
2016-10-26T19:17:58.836Z,1445
2016-10-26T19:18:16.096Z,1435
2016-10-26T19:18:32.839Z,1445
2016-10-26T19:18:49.600Z,1450
2016-10-26T19:19:06.351Z,1510
2016-10-26T19:19:23.088Z,1510
2016-10-26T19:19:40.796Z,1495
2016-10-26T19:19:57.557Z,1485
2016-10-26T19:20:14.324Z,1485
2016-10-26T19:20:31.079Z,1480
2016-10-26T19:20:47.840Z,1480
2016-10-26T19:21:04.589Z,1495
2016-10-26T19:21:21.338Z,1520
2016-10-26T19:21:38.104Z,1525
2016-10-26T19:21:54.895Z,1515
2016-10-26T19:22:12.159Z,1480
2016-10-26T19:22:28.910Z,1465
2016-10-26T19:22:45.657Z,1470
2016-10-26T19:23:02.416Z,1470
2016-10-26T19:23:19.174Z,1450
2016-10-26T19:23:35.970Z,1445
2016-10-26T19:23:52.754Z,1440
2016-10-26T19:24:09.613Z,1420
2016-10-26T19:24:26.361Z,1415
2016-10-26T19:24:43.110Z,1415
2016-10-26T19:24:59.862Z,1415
2016-10-26T19:25:16.612Z,1400
2016-10-26T19:25:33.385Z,1370
2016-10-26T19:25:50.205Z,1355
2016-10-26T19:26:06.944Z,1375
2016-10-26T19:26:23.681Z,1385
2016-10-26T19:26:40.438Z,1395
2016-10-26T19:26:57.191Z,1380
2016-10-26T19:27:13.954Z,1380
2016-10-26T19:27:30.931Z,1405
2016-10-26T19:27:47.683Z,1420
2016-10-26T19:28:04.447Z,1395
2016-10-26T19:28:21.222Z,1380
2016-10-26T19:28:37.961Z,1380
2016-10-26T19:28:54.703Z,1390
2016-10-26T19:29:25.952Z,1370
2016-10-26T19:29:42.737Z,1395
2016-10-26T19:29:59.542Z,1380
2016-10-26T19:30:16.373Z,1345
2016-10-26T19:30:33.104Z,1320
2016-10-26T19:30:49.847Z,1305
2016-10-26T19:31:06.640Z,1305
2016-10-26T19:31:23.392Z,1295
2016-10-26T19:31:40.170Z,1270
2016-10-26T19:31:57.413Z,1205
2016-10-26T19:32:14.170Z,1210
2016-10-26T19:32:30.916Z,1215
2016-10-26T19:32:48.180Z,1245
2016-10-26T19:33:04.932Z,1205
2016-10-26T19:33:21.712Z,1135
2016-10-26T19:33:38.461Z,1145
2016-10-26T19:33:55.224Z,1170
2016-10-26T19:34:11.972Z,1090
2016-10-26T19:34:28.761Z,965
2016-10-26T19:34:45.524Z,845
2016-10-26T19:35:02.296Z,770
2016-10-26T19:35:19.567Z,730
2016-10-26T19:35:36.835Z,725
2016-10-26T19:35:53.634Z,715
2016-10-26T19:36:10.395Z,680
2016-10-26T19:36:27.182Z,700
2016-10-26T19:36:43.977Z,710
2016-10-26T19:37:00.734Z,730
2016-10-26T19:37:17.510Z,755
2016-10-26T19:37:34.247Z,750
2016-10-26T19:37:50.990Z,750
2016-10-26T19:38:07.737Z,795
2016-10-26T19:38:24.480Z,820
2016-10-26T19:38:41.238Z,840
2016-10-26T19:38:57.984Z,865
2016-10-26T19:39:14.850Z,870
2016-10-26T19:39:31.624Z,855
2016-10-26T19:39:48.414Z,840
2016-10-26T19:40:05.157Z,820
2016-10-26T19:40:21.912Z,820
2016-10-26T19:40:39.187Z,840
2016-10-26T19:40:55.964Z,870
2016-10-26T19:41:12.715Z,850
2016-10-26T19:41:30.070Z,820
2016-10-26T19:41:46.842Z,790
2016-10-26T19:42:03.601Z,705
2016-10-26T19:42:20.359Z,615
2016-10-26T19:42:37.129Z,555
2016-10-26T19:42:53.880Z,505
2016-10-26T19:43:10.661Z,465
2016-10-26T19:43:27.925Z,440
2016-10-26T19:43:44.703Z,420
2016-10-26T19:44:01.464Z,410
2016-10-26T19:44:18.223Z,405
2016-10-26T19:44:35.250Z,400
2016-10-26T19:44:52.051Z,400
2016-10-26T19:45:08.780Z,410
2016-10-26T19:45:25.524Z,420
2016-10-26T19:45:42.284Z,430
2016-10-26T19:45:59.045Z,455
2016-10-26T19:46:15.785Z,480
2016-10-26T19:46:32.527Z,510
2016-10-26T19:46:49.784Z,540
2016-10-26T19:47:06.523Z,560
2016-10-26T19:47:23.262Z,600
2016-10-26T19:47:40.270Z,620
2016-10-26T19:47:57.054Z,640
2016-10-26T19:48:13.828Z,660
2016-10-26T19:48:30.760Z,670
2016-10-26T19:48:47.545Z,685
2016-10-26T19:49:04.294Z,690
2016-10-26T19:49:21.065Z,715
2016-10-26T19:49:38.323Z,700
2016-10-26T19:49:55.082Z,715
2016-10-26T19:50:11.825Z,735
2016-10-26T19:50:28.620Z,750
2016-10-26T19:50:45.361Z,755
2016-10-26T19:51:02.111Z,745
2016-10-26T19:51:18.859Z,715
2016-10-26T19:51:35.611Z,655
2016-10-26T19:51:52.346Z,635
2016-10-26T19:52:09.101Z,635
2016-10-26T19:52:25.864Z,620
2016-10-26T19:52:42.625Z,605
2016-10-26T19:52:59.585Z,585
2016-10-26T19:53:16.371Z,580
2016-10-26T19:53:33.125Z,580
2016-10-26T19:53:49.918Z,580
2016-10-26T19:54:07.207Z,580
2016-10-26T19:54:24.060Z,580